createdAt,value
2022-08-05T00:01:56.578Z,6.57
2022-08-05T00:06:01.740Z,7.23
2022-08-05T00:08:35.549Z,6.97
2022-08-05T00:11:47.431Z,7.88
2022-08-05T00:14:52.201Z,7.10
2022-08-05T00:17:55.861Z,7.85
2022-08-05T00:20:58.428Z,9.03
2022-08-05T00:24:09.979Z,8.00
2022-08-05T00:27:16.783Z,7.85
2022-08-05T00:30:29.306Z,7.82
2022-08-05T00:34:54.360Z,7.72
2022-08-05T00:37:12.709Z,7.50
2022-08-05T00:40:27.828Z,7.80
2022-08-05T00:43:47.249Z,7.65
2022-08-05T00:47:02.096Z,7.80
2022-08-05T00:50:09.286Z,7.90
2022-08-05T00:54:00.943Z,7.77
2022-08-05T00:56:38.503Z,8.17
2022-08-05T00:59:54.681Z,7.90
2022-08-05T01:02:59.679Z,8.15
2022-08-05T01:06:05.622Z,7.72
2022-08-05T01:09:08.881Z,7.83
2022-08-05T01:12:18.592Z,8.17
2022-08-05T01:15:36.510Z,8.38
2022-08-05T01:18:48.059Z,8.00
2022-08-05T01:22:31.746Z,8.35
2022-08-05T01:26:01.016Z,9.10
2022-08-05T01:29:22.998Z,8.57
2022-08-05T01:32:46.833Z,8.35
2022-08-05T01:35:53.296Z,7.95
2022-08-05T01:39:01.015Z,8.70
2022-08-05T01:42:05.905Z,8.43
2022-08-05T01:45:09.667Z,7.70
2022-08-05T01:48:13.714Z,8.85
2022-08-05T01:51:19.181Z,9.02
2022-08-05T01:54:23.682Z,9.35
2022-08-05T01:58:13.083Z,9.50
2022-08-05T02:01:12.384Z,9.23
2022-08-05T02:04:15.979Z,8.48
2022-08-05T02:07:22.239Z,7.75
2022-08-05T02:10:33.788Z,7.70
2022-08-05T02:14:00.968Z,7.63
2022-08-05T02:17:16.805Z,7.63
2022-08-05T02:20:40.564Z,7.53
2022-08-05T02:23:49.061Z,7.40
2022-08-05T02:26:55.166Z,7.35
2022-08-05T02:30:02.754Z,7.30
2022-08-05T02:33:08.274Z,7.23
2022-08-05T02:36:18.424Z,7.43
2022-08-05T02:39:23.417Z,8.23
2022-08-05T02:42:31.902Z,8.10
2022-08-05T02:45:52.878Z,8.40
2022-08-05T02:48:58.111Z,8.57
2022-08-05T02:52:03.655Z,7.72
2022-08-05T02:55:10.976Z,8.20
2022-08-05T02:58:17.428Z,7.75
2022-08-05T03:01:25.507Z,8.20
2022-08-05T03:04:30.377Z,7.73
2022-08-05T03:08:01.213Z,7.97
2022-08-05T03:11:55.742Z,8.43
2022-08-05T03:14:20.414Z,7.78
2022-08-05T03:17:23.724Z,8.10
2022-08-05T03:20:28.132Z,7.80
2022-08-05T03:23:31.941Z,7.75
2022-08-05T03:26:38.317Z,8.18
2022-08-05T03:29:45.486Z,8.13
2022-08-05T03:33:05.828Z,7.47
2022-08-05T03:36:12.130Z,7.40
2022-08-05T03:39:20.034Z,7.45
2022-08-05T03:42:32.156Z,7.22
2022-08-05T03:45:57.315Z,7.15
2022-08-05T03:48:58.361Z,7.40
2022-08-05T03:52:48.707Z,6.73
2022-08-05T03:56:09.851Z,7.30
2022-08-05T03:58:51.488Z,7.68
2022-08-05T04:01:59.003Z,7.68
2022-08-05T04:05:03.329Z,7.47
2022-08-05T04:08:22.471Z,7.53
2022-08-05T04:11:47.325Z,7.78
2022-08-05T04:14:54.946Z,7.43
2022-08-05T04:18:07.440Z,7.10
2022-08-05T04:22:05.018Z,6.60
2022-08-05T04:24:44.722Z,6.97
2022-08-05T04:28:00.587Z,7.22
2022-08-05T04:31:10.476Z,7.53
2022-08-05T04:34:19.082Z,6.90
2022-08-05T04:38:01.647Z,7.07
2022-08-05T04:40:57.709Z,7.03
2022-08-05T04:44:00.972Z,7.10
2022-08-05T04:47:15.752Z,7.03
2022-08-05T04:50:37.289Z,6.70
2022-08-05T04:53:46.690Z,6.90
2022-08-05T04:56:48.906Z,6.37
2022-08-05T04:59:51.117Z,7.03
2022-08-05T05:02:53.487Z,6.82
2022-08-05T05:06:39.232Z,7.07
2022-08-05T05:09:21.551Z,6.93
2022-08-05T05:12:27.436Z,6.63
2022-08-05T05:15:56.632Z,6.28
2022-08-05T05:19:16.346Z,6.60
2022-08-05T05:22:23.488Z,6.05
2022-08-05T05:25:32.701Z,5.60
2022-08-05T05:28:45.134Z,5.63
2022-08-05T05:31:47.571Z,5.30
2022-08-05T05:34:52.312Z,5.10
2022-08-05T05:38:02.162Z,5.13
2022-08-05T05:41:05.160Z,5.43
2022-08-05T05:44:36.105Z,4.90
2022-08-05T05:48:07.006Z,4.82
2022-08-05T05:50:55.160Z,4.93
2022-08-05T05:53:59.911Z,4.90
2022-08-05T05:57:02.598Z,4.93
2022-08-05T06:00:06.414Z,4.70
2022-08-05T06:03:40.815Z,4.28
2022-08-05T06:06:41.920Z,4.60
2022-08-05T06:10:01.466Z,4.10
2022-08-05T06:13:06.844Z,4.20
2022-08-05T06:16:28.661Z,4.20
2022-08-05T06:19:34.557Z,4.20
2022-08-05T06:22:37.976Z,4.30
2022-08-05T06:26:12.495Z,4.28
2022-08-05T06:29:06.949Z,4.70
2022-08-05T06:32:28.881Z,4.50
2022-08-05T06:36:07.013Z,4.13
2022-08-05T06:38:54.867Z,4.50
2022-08-05T06:41:59.147Z,4.78
2022-08-05T06:45:05.492Z,4.63
2022-08-05T06:48:50.482Z,4.10
2022-08-05T06:51:33.805Z,4.35
2022-08-05T06:54:36.323Z,4.15
2022-08-05T06:58:02.785Z,4.13
2022-08-05T07:01:02.272Z,4.07
2022-08-05T07:04:04.706Z,4.63
2022-08-05T07:07:07.845Z,3.92
2022-08-05T07:10:10.821Z,4.07
2022-08-05T07:13:58.834Z,4.10
2022-08-05T07:17:59.876Z,4.03
2022-08-05T07:20:33.502Z,3.80
2022-08-05T07:23:37.475Z,4.00
2022-08-05T07:26:52.523Z,4.50
2022-08-05T07:30:24.621Z,3.50
2022-08-05T07:33:37.075Z,4.07
2022-08-05T07:36:40.011Z,4.10
2022-08-05T07:40:04.003Z,3.67
2022-08-05T07:43:20.078Z,4.00
2022-08-05T07:46:25.831Z,3.60
2022-08-05T07:49:28.635Z,3.77
2022-08-05T07:52:31.001Z,4.10
2022-08-05T07:55:44.297Z,3.95
2022-08-05T07:58:58.881Z,3.80
2022-08-05T08:02:03.067Z,4.25
2022-08-05T08:05:06.838Z,4.10
2022-08-05T08:08:12.498Z,4.20
2022-08-05T08:11:16.003Z,4.20
2022-08-05T08:14:19.158Z,4.30
2022-08-05T08:17:21.923Z,4.32
2022-08-05T08:20:45.140Z,4.50
2022-08-05T08:24:02.684Z,4.10
2022-08-05T08:27:07.451Z,4.07
2022-08-05T08:30:30.093Z,4.03
2022-08-05T08:33:37.850Z,3.80
2022-08-05T08:36:49.121Z,3.80
2022-08-05T08:39:57.343Z,3.47
2022-08-05T08:45:20.894Z,3.55
2022-08-05T08:46:27.960Z,4.28
2022-08-05T08:50:12.950Z,3.88
2022-08-05T08:53:02.217Z,3.70
2022-08-05T08:56:10.886Z,3.70
2022-08-05T08:59:19.789Z,3.60
2022-08-05T09:02:26.867Z,3.80
2022-08-05T09:05:38.990Z,3.85
2022-08-05T09:08:58.942Z,3.77
2022-08-05T09:12:14.423Z,3.60
2022-08-05T09:15:24.859Z,4.03
2022-08-05T09:18:29.717Z,3.83
2022-08-05T09:22:23.622Z,3.63
2022-08-05T09:24:59.767Z,3.97
2022-08-05T09:28:23.398Z,3.90
2022-08-05T09:32:40.043Z,4.10
2022-08-05T09:34:58.941Z,3.80
2022-08-05T09:38:12.672Z,3.95
2022-08-05T09:41:23.347Z,4.23
2022-08-05T09:44:43.039Z,4.07
2022-08-05T09:47:56.134Z,4.00
2022-08-05T09:51:01.746Z,3.60
2022-08-05T09:54:08.631Z,4.00
2022-08-05T09:57:35.155Z,3.73
2022-08-05T10:00:38.367Z,3.80
2022-08-05T10:03:58.713Z,3.92
2022-08-05T10:07:19.730Z,4.03
2022-08-05T10:10:28.145Z,3.85
2022-08-05T10:13:45.817Z,4.17
2022-08-05T10:16:52.948Z,3.93
2022-08-05T10:20:04.290Z,3.80
2022-08-05T10:23:34.495Z,4.32
2022-08-05T10:26:49.012Z,3.65
2022-08-05T10:30:41.278Z,3.67
2022-08-05T10:33:17.664Z,4.00
2022-08-05T10:36:23.697Z,3.63
2022-08-05T10:40:03.157Z,3.95
2022-08-05T10:42:59.391Z,4.10
2022-08-05T10:46:07.451Z,3.63
2022-08-05T10:49:16.574Z,3.90
2022-08-05T10:52:58.684Z,3.70
2022-08-05T10:56:21.067Z,4.10
2022-08-05T11:00:03.258Z,3.97
2022-08-05T11:03:23.162Z,3.40
2022-08-05T11:06:30.735Z,3.40
2022-08-05T11:09:47.044Z,3.97
2022-08-05T11:12:50.312Z,3.90
2022-08-05T11:16:23.128Z,3.65
2022-08-05T11:20:09.878Z,3.43
2022-08-05T11:23:33.273Z,3.40
2022-08-05T11:26:49.773Z,3.85
2022-08-05T11:29:59.842Z,3.88
2022-08-05T11:33:34.478Z,3.92
2022-08-05T11:36:52.849Z,3.93
2022-08-05T11:40:03.054Z,3.80
2022-08-05T11:43:06.207Z,3.92
2022-08-05T11:46:15.689Z,3.92
2022-08-05T11:49:34.031Z,4.00
2022-08-05T11:52:36.523Z,3.70
2022-08-05T11:55:59.658Z,4.10
2022-08-05T11:59:02.012Z,3.70
2022-08-05T12:02:06.513Z,3.55
2022-08-05T12:05:32.279Z,3.97
2022-08-05T12:08:50.595Z,3.80
2022-08-05T12:11:53.977Z,4.13
2022-08-05T12:14:56.947Z,4.05
2022-08-05T12:18:03.678Z,3.85
2022-08-05T12:21:15.170Z,3.80
2022-08-05T12:24:19.916Z,3.90
2022-08-05T12:27:25.386Z,3.77
2022-08-05T12:30:32.072Z,4.00
2022-08-05T12:33:38.538Z,3.67
2022-08-05T12:36:41.835Z,3.80
2022-08-05T12:39:45.144Z,3.70
2022-08-05T12:42:53.757Z,4.00
2022-08-05T12:45:56.584Z,4.10
2022-08-05T12:49:13.263Z,3.97
2022-08-05T12:52:25.312Z,3.95
2022-08-05T12:55:32.831Z,3.93
2022-08-05T12:58:52.625Z,3.87
2022-08-05T13:02:30.213Z,4.28
2022-08-05T13:05:37.568Z,4.50
2022-08-05T13:08:40.702Z,4.45
2022-08-05T13:12:03.739Z,3.90
2022-08-05T13:15:10.055Z,4.00
2022-08-05T13:18:20.078Z,4.38
2022-08-05T13:21:22.690Z,4.40
2022-08-05T13:24:51.178Z,4.03
2022-08-05T13:27:56.210Z,4.20
2022-08-05T13:31:00.202Z,4.40
2022-08-05T13:34:22.357Z,4.28
2022-08-05T13:37:34.609Z,4.18
2022-08-05T13:40:51.310Z,4.00
2022-08-05T13:43:55.419Z,4.20
2022-08-05T13:47:02.573Z,4.17
2022-08-05T13:50:16.263Z,4.10
2022-08-05T13:53:19.055Z,4.50
2022-08-05T13:56:21.620Z,4.35
2022-08-05T13:59:27.144Z,4.50
2022-08-05T14:02:31.394Z,4.00
2022-08-05T14:06:04.812Z,4.00
2022-08-05T14:08:59.486Z,3.75
2022-08-05T14:12:17.211Z,3.60
2022-08-05T14:16:08.395Z,4.13
2022-08-05T14:18:42.951Z,4.07
2022-08-05T14:22:08.525Z,4.20
2022-08-05T14:25:19.025Z,3.92
2022-08-05T14:28:26.829Z,3.83
2022-08-05T14:32:02.296Z,3.97
2022-08-05T14:34:53.135Z,4.03
2022-08-05T14:37:56.936Z,4.00
2022-08-05T14:41:06.761Z,4.10
2022-08-05T14:44:21.857Z,3.83
2022-08-05T14:48:03.644Z,4.13
2022-08-05T14:50:47.128Z,3.80
2022-08-05T14:54:26.338Z,4.22
2022-08-05T14:57:13.809Z,4.35
2022-08-05T15:00:16.826Z,4.20
2022-08-05T15:03:22.919Z,4.03
2022-08-05T15:06:27.956Z,3.50
2022-08-05T15:09:52.538Z,4.40
2022-08-05T15:13:01.151Z,4.00
2022-08-05T15:16:06.211Z,3.88
2022-08-05T15:19:14.603Z,3.90
2022-08-05T15:22:26.882Z,4.10
2022-08-05T15:25:50.933Z,3.47
2022-08-05T15:28:54.240Z,4.10
2022-08-05T15:31:56.673Z,3.70
2022-08-05T15:34:59.151Z,3.80
2022-08-05T15:38:33.253Z,4.00
2022-08-05T15:41:58.268Z,3.85
2022-08-05T15:44:51.304Z,4.10
2022-08-05T15:47:54.399Z,3.65
2022-08-05T15:51:03.445Z,3.93
2022-08-05T15:54:08.599Z,3.90
2022-08-05T15:57:13.831Z,4.10
2022-08-05T16:00:30.598Z,4.00
2022-08-05T16:03:40.887Z,3.60
2022-08-05T16:06:43.774Z,4.10
2022-08-05T16:09:46.078Z,3.90
2022-08-05T16:12:49.084Z,3.83
2022-08-05T16:15:52.050Z,3.80
2022-08-05T16:18:54.296Z,4.00
2022-08-05T16:21:58.675Z,3.97
2022-08-05T16:25:07.921Z,3.70
2022-08-05T16:28:12.003Z,3.65
2022-08-05T16:31:17.942Z,3.60
2022-08-05T16:34:23.336Z,3.75
2022-08-05T16:38:03.039Z,3.90
2022-08-05T16:40:55.506Z,3.83
2022-08-05T16:44:06.608Z,3.50
2022-08-05T16:47:28.900Z,3.70
2022-08-05T16:50:34.515Z,3.75
2022-08-05T16:54:03.004Z,3.23
2022-08-05T16:57:22.189Z,3.63
2022-08-05T17:00:26.025Z,3.63
2022-08-05T17:03:37.374Z,3.90
2022-08-05T17:06:41.981Z,4.35
2022-08-05T17:09:57.721Z,4.00
2022-08-05T17:13:02.293Z,4.33
2022-08-05T17:16:27.522Z,3.55
2022-08-05T17:19:29.097Z,4.43
2022-08-05T17:22:33.123Z,4.95
2022-08-05T17:25:39.945Z,4.40
2022-08-05T17:28:43.294Z,4.30
2022-08-05T17:31:57.187Z,4.03
2022-08-05T17:35:01.609Z,4.30
2022-08-05T17:38:08.186Z,4.07
2022-08-05T17:41:11.584Z,3.73
2022-08-05T17:44:33.097Z,4.23
2022-08-05T17:47:35.454Z,4.05
2022-08-05T17:50:38.940Z,4.32
2022-08-05T17:53:42.480Z,4.45
2022-08-05T17:56:45.607Z,4.13
2022-08-05T18:00:04.937Z,4.80
2022-08-05T18:03:09.001Z,5.60
2022-08-05T18:06:15.013Z,5.93
2022-08-05T18:09:17.872Z,4.78
2022-08-05T18:12:22.271Z,6.10
2022-08-05T18:15:28.079Z,5.23
2022-08-05T18:18:39.561Z,5.20
2022-08-05T18:22:09.499Z,6.00
2022-08-05T18:25:06.400Z,4.97
2022-08-05T18:28:09.500Z,4.73
2022-08-05T18:31:11.776Z,5.10
2022-08-05T18:34:14.844Z,5.85
2022-08-05T18:37:34.716Z,7.75
2022-08-05T18:41:55.604Z,7.30
2022-08-05T18:44:06.242Z,6.80
2022-08-05T18:47:09.964Z,7.50
2022-08-05T18:50:42.345Z,7.50
2022-08-05T18:53:50.158Z,6.90
2022-08-05T18:56:53.733Z,7.20
2022-08-05T19:00:03.287Z,8.37
2022-08-05T19:03:07.895Z,7.83
2022-08-05T19:06:21.859Z,7.45
2022-08-05T19:09:39.195Z,7.80
2022-08-05T19:12:46.480Z,7.45
2022-08-05T19:15:59.791Z,7.93
2022-08-05T19:19:06.689Z,9.27
2022-08-05T19:22:13.475Z,9.57
2022-08-05T19:25:22.132Z,9.05
2022-08-05T19:28:35.113Z,8.88
2022-08-05T19:31:44.832Z,8.30
2022-08-05T19:34:55.275Z,7.47
2022-08-05T19:38:06.742Z,7.38
2022-08-05T19:41:11.245Z,8.15
2022-08-05T19:44:16.052Z,8.18
2022-08-05T19:47:19.763Z,9.97
2022-08-05T19:50:22.457Z,10.00
2022-08-05T19:54:04.466Z,12.90
2022-08-05T19:56:49.882Z,12.30
2022-08-05T20:00:01.175Z,11.30
2022-08-05T20:03:13.910Z,10.83
2022-08-05T20:06:28.545Z,10.33
2022-08-05T20:09:53.594Z,10.88
2022-08-05T20:12:55.477Z,10.68
2022-08-05T20:15:58.062Z,10.63
2022-08-05T20:19:02.226Z,10.93
2022-08-05T20:22:04.986Z,10.13
2022-08-05T20:25:08.194Z,10.43
2022-08-05T20:28:14.528Z,10.90
2022-08-05T20:31:21.556Z,10.75
2022-08-05T20:34:25.763Z,10.20
2022-08-05T20:38:07.684Z,10.03
2022-08-05T20:40:52.960Z,10.38
2022-08-05T20:44:03.482Z,10.27
2022-08-05T20:47:21.265Z,9.68
2022-08-05T20:50:38.647Z,9.23
2022-08-05T20:53:56.847Z,9.37
2022-08-05T20:57:00.225Z,7.70
2022-08-05T21:00:21.132Z,8.65
2022-08-05T21:03:34.338Z,8.65
2022-08-05T21:06:37.800Z,8.00
2022-08-05T21:09:50.191Z,8.37
2022-08-05T21:13:02.703Z,8.05
2022-08-05T21:16:13.666Z,8.23
2022-08-05T21:19:16.105Z,7.72
2022-08-05T21:22:21.808Z,7.93
2022-08-05T21:25:25.734Z,8.10
2022-08-05T21:28:36.519Z,7.88
2022-08-05T21:31:41.322Z,8.13
2022-08-05T21:34:44.187Z,8.30
2022-08-05T21:37:58.446Z,8.03
2022-08-05T21:41:00.981Z,8.70
2022-08-05T21:44:06.448Z,8.32
2022-08-05T21:47:17.568Z,8.30
2022-08-05T21:50:31.703Z,7.72
2022-08-05T21:53:37.526Z,8.10
2022-08-05T21:56:44.624Z,8.67
2022-08-05T22:00:05.531Z,7.68
2022-08-05T22:03:15.927Z,7.70
2022-08-05T22:06:22.963Z,8.00
2022-08-05T22:09:46.173Z,8.10
2022-08-05T22:12:50.698Z,8.17
2022-08-05T22:16:00.595Z,8.43
2022-08-05T22:20:00.301Z,9.40
2022-08-05T22:22:57.332Z,9.32
2022-08-05T22:26:20.694Z,9.30
2022-08-05T22:29:26.603Z,9.33
2022-08-05T22:32:30.470Z,9.60
2022-08-05T22:35:47.919Z,8.73
2022-08-05T22:38:53.827Z,9.60
2022-08-05T22:42:10.077Z,8.90
2022-08-05T22:45:20.328Z,8.50
2022-08-05T22:48:23.726Z,8.77
2022-08-05T22:52:05.105Z,8.25
2022-08-05T22:54:54.084Z,8.40
2022-08-05T22:57:58.212Z,8.30
2022-08-05T23:01:01.492Z,7.90
2022-08-05T23:04:05.080Z,7.32
2022-08-05T23:07:10.038Z,8.02
2022-08-05T23:10:20.022Z,7.75
2022-08-05T23:13:23.906Z,8.00
2022-08-05T23:16:45.329Z,7.87
2022-08-05T23:19:59.585Z,8.00
2022-08-05T23:23:05.948Z,7.70
2022-08-05T23:26:11.918Z,8.30
2022-08-05T23:29:15.767Z,8.30
2022-08-05T23:32:22.768Z,8.23
2022-08-05T23:35:28.492Z,8.32
2022-08-05T23:38:36.772Z,8.38
2022-08-05T23:41:41.131Z,8.25
2022-08-05T23:44:54.230Z,8.57
2022-08-05T23:48:03.117Z,8.77
2022-08-05T23:51:06.919Z,8.88
2022-08-05T23:54:11.380Z,8.32
2022-08-05T23:57:13.716Z,9.10
